createdAt,value
2022-11-22T00:00:48.610Z,83.96
2022-11-22T00:03:15.120Z,84.74
2022-11-22T00:05:41.676Z,84.11
2022-11-22T00:08:08.369Z,83.12
2022-11-22T00:10:35.263Z,83.20
2022-11-22T00:13:02.343Z,84.00
2022-11-22T00:15:29.731Z,83.06
2022-11-22T00:17:56.531Z,84.44
2022-11-22T00:20:26.170Z,84.07
2022-11-22T00:22:58.262Z,84.00
2022-11-22T00:25:24.800Z,83.03
2022-11-22T00:27:51.631Z,83.92
2022-11-22T00:30:18.576Z,84.25
2022-11-22T00:32:45.207Z,82.91
2022-11-22T00:35:12.285Z,82.67
2022-11-22T00:37:38.817Z,82.32
2022-11-22T00:40:06.680Z,81.46
2022-11-22T00:42:33.172Z,82.22
2022-11-22T00:44:59.659Z,81.25
2022-11-22T00:47:26.137Z,81.34
2022-11-22T00:49:54.776Z,81.39
2022-11-22T00:52:21.294Z,80.25
2022-11-22T00:54:54.268Z,80.37
2022-11-22T00:57:21.534Z,80.65
2022-11-22T00:59:48.036Z,81.19
2022-11-22T01:02:14.563Z,81.89
2022-11-22T01:04:41.140Z,79.98
2022-11-22T01:07:07.741Z,80.12
2022-11-22T01:09:34.386Z,79.82
2022-11-22T01:12:00.939Z,79.37
2022-11-22T01:14:27.486Z,80.47
2022-11-22T01:16:56.094Z,81.26
2022-11-22T01:19:22.670Z,80.88
2022-11-22T01:21:49.169Z,80.63
2022-11-22T01:24:15.680Z,80.50
2022-11-22T01:26:42.221Z,81.84
2022-11-22T01:29:08.765Z,81.38
2022-11-22T01:31:35.393Z,80.69
2022-11-22T01:34:05.424Z,80.97
2022-11-22T01:36:32.096Z,81.00
2022-11-22T01:38:58.585Z,81.16
2022-11-22T01:41:27.497Z,81.79
2022-11-22T01:43:53.986Z,81.88
2022-11-22T01:46:39.640Z,81.19
2022-11-22T01:49:11.643Z,82.30
2022-11-22T01:51:44.149Z,80.77
2022-11-22T01:54:17.409Z,81.34
2022-11-22T01:56:50.359Z,80.78
2022-11-22T01:59:21.848Z,80.00
2022-11-22T02:01:48.913Z,80.89
2022-11-22T02:04:18.544Z,79.07
2022-11-22T02:07:08.750Z,78.90
2022-11-22T02:09:37.564Z,80.08
2022-11-22T02:12:06.535Z,81.13
2022-11-22T02:14:34.678Z,80.38
2022-11-22T02:17:01.169Z,79.39
2022-11-22T02:19:33.276Z,79.11
2022-11-22T02:22:14.061Z,79.23
2022-11-22T02:24:48.762Z,79.63
2022-11-22T02:27:15.300Z,80.04
2022-11-22T02:29:42.594Z,80.60
2022-11-22T02:32:09.090Z,82.19
2022-11-22T02:34:50.100Z,83.24
2022-11-22T02:37:21.997Z,83.24
2022-11-22T02:39:53.124Z,83.57
2022-11-22T02:42:20.137Z,84.76
2022-11-22T02:44:46.672Z,84.71
2022-11-22T02:47:13.226Z,85.21
2022-11-22T02:49:39.766Z,85.97
2022-11-22T02:52:06.382Z,85.67
2022-11-22T02:54:32.909Z,84.24
2022-11-22T02:57:02.996Z,85.24
2022-11-22T02:59:32.064Z,86.80
2022-11-22T03:02:03.065Z,87.05
2022-11-22T03:04:32.410Z,86.88
2022-11-22T03:07:02.139Z,86.37
2022-11-22T03:09:29.663Z,86.80
2022-11-22T03:11:56.750Z,86.39
2022-11-22T03:14:23.569Z,86.01
2022-11-22T03:16:50.186Z,86.62
2022-11-22T03:19:17.199Z,85.44
2022-11-22T03:21:44.251Z,86.48
2022-11-22T03:24:11.294Z,85.57
2022-11-22T03:26:38.530Z,87.77
2022-11-22T03:29:05.338Z,87.04
2022-11-22T03:31:36.544Z,86.41
2022-11-22T03:34:06.225Z,88.80
2022-11-22T03:36:34.826Z,87.94
2022-11-22T03:39:04.460Z,88.66
2022-11-22T03:41:30.956Z,89.07
2022-11-22T03:43:57.454Z,88.40
2022-11-22T03:46:24.253Z,87.83
2022-11-22T03:48:50.769Z,88.78
2022-11-22T03:51:17.486Z,88.98
2022-11-22T03:53:44.066Z,90.34
2022-11-22T03:56:10.597Z,89.05
2022-11-22T03:58:37.158Z,89.63
2022-11-22T04:01:06.447Z,90.38
2022-11-22T04:03:35.387Z,90.31
2022-11-22T04:06:01.914Z,91.20
2022-11-22T04:08:28.439Z,92.85
2022-11-22T04:10:55.012Z,92.83
2022-11-22T04:13:21.703Z,93.20
2022-11-22T04:15:48.174Z,94.12
2022-11-22T04:18:15.053Z,93.84
2022-11-22T04:21:00.404Z,94.45
2022-11-22T04:23:33.531Z,93.79
2022-11-22T04:26:00.469Z,94.86
2022-11-22T04:28:46.986Z,94.97
2022-11-22T04:31:32.683Z,94.34
2022-11-22T04:33:59.170Z,95.79
2022-11-22T04:36:25.663Z,95.65
2022-11-22T04:38:52.242Z,95.91
2022-11-22T04:41:18.748Z,95.72
2022-11-22T04:44:03.736Z,95.07
2022-11-22T04:46:31.457Z,96.75
2022-11-22T04:48:58.110Z,96.35
2022-11-22T04:51:43.005Z,96.73
2022-11-22T04:54:09.590Z,97.20
2022-11-22T04:56:36.958Z,96.78
2022-11-22T04:59:03.530Z,96.63
2022-11-22T05:01:30.117Z,96.30
2022-11-22T05:03:56.728Z,94.74
2022-11-22T05:06:23.487Z,94.88
2022-11-22T05:08:49.944Z,95.52
2022-11-22T05:11:16.502Z,95.84
2022-11-22T05:13:43.179Z,97.17
2022-11-22T05:16:14.224Z,96.93
2022-11-22T05:18:41.284Z,96.43
2022-11-22T05:21:13.617Z,97.20
2022-11-22T05:23:55.217Z,96.89
2022-11-22T05:26:23.575Z,97.16
2022-11-22T05:28:50.391Z,97.25
2022-11-22T05:31:23.154Z,97.68
2022-11-22T05:33:52.047Z,98.41
2022-11-22T05:36:19.337Z,98.58
2022-11-22T05:38:45.818Z,98.66
2022-11-22T05:41:13.921Z,97.86
2022-11-22T05:43:43.825Z,98.27
2022-11-22T05:46:23.811Z,97.16
2022-11-22T05:48:52.254Z,97.39
2022-11-22T05:51:20.799Z,97.46
2022-11-22T05:53:47.621Z,98.05
2022-11-22T05:56:16.631Z,97.92
2022-11-22T05:58:43.495Z,98.69
2022-11-22T06:01:19.683Z,96.77
2022-11-22T06:03:47.157Z,96.64
2022-11-22T06:06:14.048Z,96.44
2022-11-22T06:08:46.901Z,95.68
2022-11-22T06:11:15.762Z,94.99
2022-11-22T06:13:46.756Z,95.19
2022-11-22T06:16:14.537Z,95.53
2022-11-22T06:18:44.983Z,94.53
2022-11-22T06:21:18.375Z,94.19
2022-11-22T06:23:45.468Z,94.06
2022-11-22T06:26:17.203Z,94.85
2022-11-22T06:28:44.777Z,94.60
2022-11-22T06:31:20.649Z,96.25
2022-11-22T06:33:47.790Z,97.09
2022-11-22T06:36:16.773Z,97.61
2022-11-22T06:38:44.889Z,96.89
2022-11-22T06:41:14.581Z,97.34
2022-11-22T06:43:48.222Z,97.80
2022-11-22T06:46:16.738Z,98.17
2022-11-22T06:48:47.181Z,98.05
2022-11-22T06:51:19.355Z,98.14
2022-11-22T06:53:48.556Z,98.12
2022-11-22T06:56:23.241Z,98.64
2022-11-22T06:58:51.128Z,97.75
2022-11-22T07:01:23.436Z,99.17
2022-11-22T07:03:50.737Z,99.82
2022-11-22T07:06:19.466Z,99.95
2022-11-22T07:08:46.728Z,100.00
2022-11-22T07:11:19.529Z,100.00
2022-11-22T07:13:46.903Z,100.00
2022-11-22T07:16:19.056Z,100.00
2022-11-22T07:18:49.495Z,100.00
2022-11-22T07:21:20.542Z,100.00
2022-11-22T07:23:49.165Z,100.00
2022-11-22T07:26:20.727Z,100.00
2022-11-22T07:28:47.835Z,100.00
2022-11-22T07:31:17.250Z,100.00
2022-11-22T07:33:46.383Z,100.00
2022-11-22T07:36:16.913Z,98.64
2022-11-22T07:38:43.862Z,98.18
2022-11-22T07:41:10.691Z,95.31
2022-11-22T07:43:37.598Z,95.33
2022-11-22T07:46:06.713Z,95.04
2022-11-22T07:48:33.785Z,95.18
2022-11-22T07:51:05.050Z,96.76
2022-11-22T07:53:32.035Z,96.45
2022-11-22T07:56:02.243Z,95.00
2022-11-22T07:58:28.804Z,92.95
2022-11-22T08:00:56.046Z,94.29
2022-11-22T08:03:28.641Z,95.09
2022-11-22T08:06:03.638Z,95.23
2022-11-22T08:08:31.285Z,95.20
2022-11-22T08:10:58.181Z,95.14
2022-11-22T08:13:24.876Z,95.59
2022-11-22T08:15:54.599Z,95.16
2022-11-22T08:18:22.422Z,94.72
2022-11-22T08:20:52.361Z,94.61
2022-11-22T08:23:22.382Z,94.43
2022-11-22T08:25:52.345Z,94.72
2022-11-22T08:28:22.056Z,94.53
2022-11-22T08:30:58.721Z,93.54
2022-11-22T08:33:25.469Z,93.49
2022-11-22T08:35:52.009Z,92.75
2022-11-22T08:38:21.857Z,91.84
2022-11-22T08:40:53.017Z,93.10
2022-11-22T08:43:20.449Z,93.90
2022-11-22T08:45:53.391Z,95.80
2022-11-22T08:48:22.471Z,92.98
2022-11-22T08:50:57.835Z,92.86
2022-11-22T08:53:25.824Z,94.51
2022-11-22T08:55:53.105Z,92.50
2022-11-22T08:58:20.890Z,93.71
2022-11-22T09:00:51.159Z,93.12
2022-11-22T09:03:20.399Z,90.29
2022-11-22T09:08:40.467Z,87.55
2022-11-22T09:11:12.973Z,85.29
2022-11-22T09:13:40.253Z,83.32
2022-11-22T09:16:12.748Z,84.40
2022-11-22T09:18:40.029Z,83.12
2022-11-22T09:21:15.872Z,81.72
2022-11-22T09:23:48.179Z,82.52
2022-11-22T09:26:20.392Z,79.38
2022-11-22T09:28:48.323Z,73.63
2022-11-22T09:31:21.836Z,72.72
2022-11-22T09:33:51.911Z,71.58
2022-11-22T09:36:28.803Z,70.86
2022-11-22T09:38:56.428Z,68.59
2022-11-22T09:41:50.402Z,65.99
2022-11-22T09:44:45.389Z,67.61
2022-11-22T09:47:51.238Z,71.14
2022-11-22T09:50:49.908Z,70.58
2022-11-22T09:53:45.041Z,71.66
2022-11-22T09:56:15.731Z,65.33
2022-11-22T09:58:51.763Z,63.24
2022-11-22T10:01:28.264Z,65.93
2022-11-22T10:04:02.643Z,68.81
2022-11-22T10:06:35.856Z,69.19
2022-11-22T10:09:36.854Z,72.14
2022-11-22T10:12:42.441Z,71.65
2022-11-22T10:15:35.943Z,72.95
2022-11-22T10:18:11.647Z,75.64
2022-11-22T10:20:47.293Z,77.05
2022-11-22T10:23:24.175Z,73.80
2022-11-22T10:26:07.887Z,71.69
2022-11-22T10:28:38.290Z,72.64
2022-11-22T10:31:26.232Z,74.34
2022-11-22T10:34:05.501Z,68.56
2022-11-22T10:36:39.245Z,67.80
2022-11-22T10:39:24.452Z,66.30
2022-11-22T10:42:08.963Z,66.27
2022-11-22T10:44:45.352Z,62.98
2022-11-22T10:47:20.557Z,66.55
2022-11-22T10:50:10.323Z,68.75
2022-11-22T10:53:00.565Z,65.28
2022-11-22T10:55:54.531Z,65.95
2022-11-22T10:58:50.217Z,63.81
2022-11-22T11:01:18.916Z,61.18
2022-11-22T11:03:53.284Z,61.75
2022-11-22T11:06:43.428Z,64.09
2022-11-22T11:12:22.251Z,59.90
2022-11-22T11:14:54.937Z,63.02
2022-11-22T11:17:28.181Z,62.57
2022-11-22T11:19:59.705Z,61.45
2022-11-22T11:22:58.531Z,61.11
2022-11-22T11:25:35.027Z,61.26
2022-11-22T11:28:08.645Z,61.57
2022-11-22T11:30:50.991Z,62.15
2022-11-22T11:33:20.658Z,62.43
2022-11-22T11:35:50.824Z,60.72
2022-11-22T11:38:48.169Z,61.08
2022-11-22T11:41:29.610Z,61.35
2022-11-22T11:43:58.864Z,61.22
2022-11-22T11:46:29.977Z,61.46
2022-11-22T11:49:15.822Z,59.29
2022-11-22T11:51:46.379Z,59.50
2022-11-22T11:54:22.778Z,59.77
2022-11-22T11:56:58.236Z,60.76
2022-11-22T11:59:36.689Z,63.30
2022-11-22T12:02:19.162Z,62.29
2022-11-22T12:05:05.762Z,61.47
2022-11-22T12:07:35.072Z,59.95
2022-11-22T12:10:22.563Z,58.79
2022-11-22T12:13:04.176Z,59.69
2022-11-22T12:16:19.875Z,63.33
2022-11-22T12:18:56.605Z,62.32
2022-11-22T12:21:45.765Z,63.08
2022-11-22T12:25:09.164Z,60.92
2022-11-22T12:27:17.688Z,61.77
2022-11-22T12:29:44.655Z,61.87
2022-11-22T12:32:14.065Z,62.07
2022-11-22T12:34:45.783Z,63.70
2022-11-22T12:37:29.768Z,64.67
2022-11-22T12:40:02.110Z,66.36
2022-11-22T12:42:56.053Z,64.89
2022-11-22T12:45:35.139Z,65.21
2022-11-22T12:48:09.430Z,67.21
2022-11-22T12:50:49.360Z,65.73
2022-11-22T12:53:21.865Z,62.44
2022-11-22T12:55:59.225Z,63.24
2022-11-22T12:58:44.415Z,64.12
2022-11-22T13:01:30.275Z,64.12
2022-11-22T13:04:11.186Z,65.24
2022-11-22T13:06:51.300Z,61.22
2022-11-22T13:09:41.012Z,59.95
2022-11-22T13:12:16.158Z,60.66
2022-11-22T13:14:50.431Z,62.39
2022-11-22T13:17:19.678Z,63.43
2022-11-22T13:20:00.131Z,61.54
2022-11-22T13:22:38.190Z,59.78
2022-11-22T13:25:26.482Z,61.31
2022-11-22T13:27:53.644Z,61.51
2022-11-22T13:30:25.579Z,63.02
2022-11-22T13:32:58.132Z,63.58
2022-11-22T13:35:36.496Z,64.06
2022-11-22T13:38:06.027Z,64.16
2022-11-22T13:40:35.400Z,63.41
2022-11-22T13:43:21.224Z,61.78
2022-11-22T13:45:58.420Z,62.23
2022-11-22T13:48:40.215Z,62.91
2022-11-22T13:51:08.888Z,62.58
2022-11-22T13:53:37.957Z,60.65
2022-11-22T13:56:16.418Z,60.55
2022-11-22T13:58:52.617Z,61.09
2022-11-22T14:01:34.677Z,59.91
2022-11-22T14:04:16.740Z,61.09
2022-11-22T14:06:53.789Z,58.28
2022-11-22T14:09:34.538Z,60.43
2022-11-22T14:12:10.346Z,61.71
2022-11-22T14:15:14.265Z,61.05
2022-11-22T14:17:55.317Z,61.46
2022-11-22T14:20:35.870Z,63.56
2022-11-22T14:23:06.756Z,61.04
2022-11-22T14:25:55.070Z,60.41
2022-11-22T14:28:27.515Z,59.35
2022-11-22T14:30:57.848Z,59.64
2022-11-22T14:33:28.836Z,59.29
2022-11-22T14:36:07.553Z,57.71
2022-11-22T14:38:40.111Z,56.86
2022-11-22T14:41:28.383Z,54.94
2022-11-22T14:44:01.328Z,54.32
2022-11-22T14:46:53.678Z,53.19
2022-11-22T14:49:36.043Z,53.89
2022-11-22T14:52:02.879Z,53.82
2022-11-22T14:54:43.245Z,53.93
2022-11-22T14:57:17.065Z,54.22
2022-11-22T15:00:07.149Z,53.14
2022-11-22T15:02:48.843Z,54.92
2022-11-22T15:09:12.949Z,56.54
2022-11-22T15:09:42.071Z,57.54
2022-11-22T15:12:00.078Z,58.74
2022-11-22T15:14:48.787Z,60.03
2022-11-22T15:57:44.976Z,68.54
2022-11-22T16:00:27.674Z,68.64
2022-11-22T16:02:57.413Z,68.07
2022-11-22T16:06:07.337Z,68.54
2022-11-22T16:08:17.290Z,69.24
2022-11-22T16:10:53.543Z,69.25
2022-11-22T16:13:20.053Z,70.16
2022-11-22T16:16:11.539Z,70.73
2022-11-22T16:18:39.560Z,70.51
2022-11-22T16:21:11.614Z,71.13
2022-11-22T16:23:41.682Z,71.31
2022-11-22T16:26:30.747Z,71.19
2022-11-22T16:29:29.187Z,71.49
2022-11-22T16:32:15.551Z,71.84
2022-11-22T16:34:43.430Z,72.18
2022-11-22T16:37:36.158Z,72.56
2022-11-22T16:40:05.760Z,73.18
2022-11-22T16:42:35.150Z,73.66
2022-11-22T16:45:04.202Z,73.65
2022-11-22T16:47:33.571Z,74.20
2022-11-22T16:50:00.109Z,74.58
2022-11-22T16:52:26.650Z,75.27
2022-11-22T16:54:56.196Z,75.11
2022-11-22T16:57:23.661Z,75.04
2022-11-22T16:59:50.392Z,75.41
2022-11-22T17:02:18.256Z,75.86
2022-11-22T17:04:49.122Z,75.49
2022-11-22T17:07:16.022Z,75.72
2022-11-22T17:09:42.640Z,75.83
2022-11-22T17:12:27.799Z,76.10
2022-11-22T17:14:57.127Z,76.48
2022-11-22T17:17:26.305Z,76.15
2022-11-22T17:19:55.513Z,76.77
2022-11-22T17:22:26.016Z,76.87
2022-11-22T17:24:56.486Z,77.78
2022-11-22T17:27:26.139Z,78.18
2022-11-22T17:29:55.651Z,78.30
2022-11-22T17:32:25.112Z,78.22
2022-11-22T17:34:56.040Z,79.00
2022-11-22T17:37:29.394Z,79.17
2022-11-22T17:39:55.918Z,79.98
2022-11-22T17:42:24.187Z,79.11
2022-11-22T17:44:53.063Z,79.87
2022-11-22T17:47:19.768Z,79.61
2022-11-22T17:49:46.308Z,80.96
2022-11-22T17:52:12.879Z,81.16
2022-11-22T17:54:41.083Z,81.18
2022-11-22T17:57:07.672Z,81.53
2022-11-22T17:59:34.912Z,81.75
2022-11-22T18:02:01.824Z,81.70
2022-11-22T18:04:28.429Z,81.75
2022-11-22T18:06:55.108Z,81.30
2022-11-22T18:09:21.932Z,80.35
2022-11-22T18:11:48.623Z,81.74
2022-11-22T18:14:15.156Z,83.03
2022-11-22T18:16:41.697Z,82.11
2022-11-22T18:19:08.299Z,82.01
2022-11-22T18:21:34.949Z,81.30
2022-11-22T18:24:01.626Z,82.20
2022-11-22T18:26:39.268Z,82.72
2022-11-22T18:31:56.765Z,82.92
2022-11-22T18:34:27.491Z,82.49
2022-11-22T18:37:00.296Z,82.67
2022-11-22T18:39:29.135Z,83.22
2022-11-22T18:41:55.878Z,84.16
2022-11-22T18:44:26.539Z,84.72
2022-11-22T18:46:55.903Z,84.16
2022-11-22T18:49:24.418Z,84.08
2022-11-22T18:51:53.462Z,84.78
2022-11-22T18:54:25.883Z,84.59
2022-11-22T18:56:56.311Z,84.75
2022-11-22T18:59:26.067Z,84.00
2022-11-22T19:01:55.042Z,83.00
2022-11-22T19:04:23.975Z,82.36
2022-11-22T19:06:51.651Z,83.09
2022-11-22T19:09:18.795Z,83.95
2022-11-22T19:11:45.301Z,82.63
2022-11-22T19:14:11.876Z,80.52
2022-11-22T19:16:38.428Z,81.19
2022-11-22T19:19:04.954Z,83.08
2022-11-22T19:21:31.538Z,84.04
2022-11-22T19:23:58.153Z,86.13
2022-11-22T19:26:28.572Z,87.58
2022-11-22T19:28:59.729Z,90.12
2022-11-22T19:31:29.147Z,91.37
2022-11-22T19:33:59.449Z,89.76
2022-11-22T19:36:34.056Z,89.07
2022-11-22T19:39:05.640Z,87.42
2022-11-22T19:41:32.651Z,86.79
2022-11-22T19:43:59.723Z,86.38
2022-11-22T19:46:27.098Z,85.80
2022-11-22T19:48:59.095Z,86.69
2022-11-22T19:51:30.951Z,86.25
2022-11-22T19:54:00.083Z,85.75
2022-11-22T19:56:37.979Z,85.13
2022-11-22T19:59:07.159Z,86.25
2022-11-22T20:01:35.294Z,86.68
2022-11-22T20:04:04.928Z,87.94
2022-11-22T20:06:32.956Z,87.13
2022-11-22T20:09:11.372Z,87.20
2022-11-22T20:11:43.904Z,86.61
2022-11-22T20:14:10.643Z,87.34
2022-11-22T20:19:59.737Z,87.30
2022-11-22T20:22:28.541Z,87.20
2022-11-22T20:24:55.028Z,87.40
2022-11-22T20:27:24.702Z,86.83
2022-11-22T20:29:51.497Z,87.76
2022-11-22T20:32:18.241Z,88.14
2022-11-22T20:34:44.767Z,87.76
2022-11-22T20:37:11.331Z,86.77
2022-11-22T20:39:37.971Z,86.44
2022-11-22T20:42:32.420Z,86.05
2022-11-22T20:44:51.488Z,85.99
2022-11-22T20:47:18.049Z,86.35
2022-11-22T20:49:45.736Z,85.24
2022-11-22T20:52:12.398Z,85.09
2022-11-22T20:54:38.881Z,86.05
2022-11-22T20:57:05.412Z,87.08
2022-11-22T20:59:32.717Z,87.79
2022-11-22T21:02:06.360Z,87.90
2022-11-22T21:04:35.466Z,86.82
2022-11-22T21:07:01.960Z,86.23
2022-11-22T21:09:30.931Z,85.71
2022-11-22T21:11:59.830Z,85.38
2022-11-22T21:14:26.409Z,84.80
2022-11-22T21:16:52.899Z,84.67
2022-11-22T21:19:19.439Z,84.37
2022-11-22T21:21:45.923Z,85.16
2022-11-22T21:24:13.650Z,85.92
2022-11-22T21:26:40.715Z,85.90
2022-11-22T21:29:15.959Z,86.73
2022-11-22T21:31:42.941Z,86.71
2022-11-22T21:34:09.565Z,86.66
2022-11-22T21:36:36.056Z,87.87
2022-11-22T21:39:02.549Z,86.01
2022-11-22T21:41:39.710Z,87.21
2022-11-22T21:44:07.345Z,87.50
2022-11-22T21:46:33.920Z,86.90
2022-11-22T21:49:03.164Z,86.94
2022-11-22T21:51:32.589Z,86.76
2022-11-22T21:54:02.563Z,85.71
2022-11-22T21:56:32.244Z,85.45
2022-11-22T21:59:02.160Z,84.71
2022-11-22T22:01:32.210Z,84.77
2022-11-22T22:04:02.616Z,85.80
2022-11-22T22:06:32.560Z,85.49
2022-11-22T22:09:02.869Z,86.80
2022-11-22T22:11:30.914Z,86.98
2022-11-22T22:14:01.633Z,86.48
2022-11-22T22:16:29.476Z,86.65
2022-11-22T22:18:56.067Z,86.91
2022-11-22T22:21:23.028Z,87.22
2022-11-22T22:23:49.782Z,87.25
2022-11-22T22:26:17.525Z,87.83
2022-11-22T22:28:45.478Z,87.95
2022-11-22T22:31:21.963Z,88.52
2022-11-22T22:33:56.695Z,88.86
2022-11-22T22:36:25.371Z,89.08
2022-11-22T22:38:52.202Z,88.37
2022-11-22T22:41:19.002Z,88.10
2022-11-22T22:43:47.696Z,88.98
2022-11-22T22:46:27.162Z,88.78
2022-11-22T22:48:57.244Z,89.66
2022-11-22T22:51:31.828Z,89.62
2022-11-22T22:54:01.873Z,89.29
2022-11-22T22:56:33.567Z,89.06
2022-11-22T22:59:05.041Z,89.05
2022-11-22T23:01:32.677Z,89.18
2022-11-22T23:04:02.559Z,88.93
2022-11-22T23:06:35.701Z,88.92
2022-11-22T23:09:06.091Z,88.72
2022-11-22T23:11:54.015Z,88.89
2022-11-22T23:14:23.019Z,88.52
2022-11-22T23:16:54.503Z,87.58
2022-11-22T23:19:24.585Z,87.20
2022-11-22T23:21:51.102Z,86.74
2022-11-22T23:24:17.649Z,85.88
2022-11-22T23:26:44.244Z,83.76
2022-11-22T23:29:10.986Z,83.82
2022-11-22T23:31:37.502Z,84.57
2022-11-22T23:34:07.138Z,85.45
2022-11-22T23:36:40.707Z,83.66
2022-11-22T23:39:08.045Z,83.03
2022-11-22T23:41:37.967Z,83.10
2022-11-22T23:44:07.755Z,81.81
2022-11-22T23:46:35.273Z,82.82
2022-11-22T23:49:06.189Z,82.01
2022-11-22T23:51:37.012Z,81.97
2022-11-22T23:54:06.036Z,81.82
2022-11-22T23:56:37.212Z,81.90
2022-11-22T23:59:06.040Z,80.52
